Time;durP1;ratioP1;P1;durP2;ratioP2;P2;SDS_P1;SDS_P2;PMS_P1;PMS_P2;Temp;Humidity;BMP_temperature;BMP_pressure;BME280_temperature;BME280_humidity;BME280_pressure;Samples;Min_cycle;Max_cycle;Signal;HPM_P1;HPM_P2
2021/12/15 00:00:04;;;;;;;9.77;7.45;;;;;;;;;;5034219;28;20061;-50
2021/12/15 00:02:29;;;;;;;8.07;6.22;;;;;;;;;;5038722;28;20531;-49
2021/12/15 00:04:56;;;;;;;11.38;7.93;;;;;;;;;;5034583;28;20057;-53
2021/12/15 00:07:24;;;;;;;7.07;5.70;;;;;;;;;;5032966;28;20447;-52
2021/12/15 00:09:50;;;;;;;8.05;6.28;;;;;;;;;;5035821;28;20076;-51
2021/12/15 00:12:16;;;;;;;10.23;6.18;;;;;;;;;;5036598;28;20025;-54
2021/12/15 00:14:43;;;;;;;8.20;6.47;;;;;;;;;;5036499;28;20091;-53
2021/12/15 00:17:09;;;;;;;8.20;5.38;;;;;;;;;;5036383;28;20092;-52
2021/12/15 00:19:36;;;;;;;9.57;7.10;;;;;;;;;;5034244;28;20064;-49
2021/12/15 00:22:01;;;;;;;8.93;6.03;;;;;;;;;;5038724;28;20497;-50
2021/12/15 00:24:27;;;;;;;14.18;9.98;;;;;;;;;;5034199;28;20037;-53
2021/12/15 00:26:53;;;;;;;8.73;6.65;;;;;;;;;;5035731;28;20064;-51
2021/12/15 00:29:19;;;;;;;9.57;6.18;;;;;;;;;;5033959;28;20505;-53
2021/12/15 00:31:46;;;;;;;7.75;6.05;;;;;;;;;;5038283;28;20071;-52
2021/12/15 00:34:12;;;;;;;5.65;4.82;;;;;;;;;;5038042;28;20033;-50
2021/12/15 00:36:39;;;;;;;5.53;4.63;;;;;;;;;;5035743;28;20025;-53
2021/12/15 00:39:06;;;;;;;6.97;6.28;;;;;;;;;;5035708;28;20033;-52
2021/12/15 00:41:31;;;;;;;7.75;6.13;;;;;;;;;;5035625;28;20344;-53
2021/12/15 00:43:58;;;;;;;7.57;6.72;;;;;;;;;;5034426;28;20036;-54
2021/12/15 00:46:23;;;;;;;8.95;6.30;;;;;;;;;;5035687;28;20044;-51
2021/12/15 00:48:49;;;;;;;7.43;6.40;;;;;;;;;;5033909;28;20473;-50
2021/12/15 00:51:15;;;;;;;7.82;6.70;;;;;;;;;;5036415;28;20443;-50
2021/12/15 00:53:41;;;;;;;6.70;6.05;;;;;;;;;;5037054;28;20032;-54
2021/12/15 00:56:06;;;;;;;8.10;5.45;;;;;;;;;;5034049;28;20480;-52
2021/12/15 00:58:31;;;;;;;9.32;6.63;;;;;;;;;;5031576;28;20674;-50
2021/12/15 01:01:01;;;;;;;7.35;6.57;;;;;;;;;;5036191;28;20474;-50
2021/12/15 01:03:29;;;;;;;13.55;6.78;;;;;;;;;;5036702;28;20040;-51
2021/12/15 01:05:59;;;;;;;7.20;6.30;;;;;;;;;;5036664;28;20017;-49
2021/12/15 01:08:28;;;;;;;5.85;5.28;;;;;;;;;;5036201;28;20033;-55
2021/12/15 01:11:08;;;;;;;7.47;6.68;;;;;;;;;;5033170;28;20033;-53
2021/12/15 01:21:55;;;;;;;11.38;6.25;;;;;;;;;;5038347;28;20409;-49
2021/12/15 01:24:21;;;;;;;10.00;5.72;;;;;;;;;;5031537;28;20037;-50
2021/12/15 01:26:47;;;;;;;13.50;7.90;;;;;;;;;;5032588;28;20116;-51
2021/12/15 01:29:13;;;;;;;7.55;6.30;;;;;;;;;;5034458;28;20104;-49
2021/12/15 01:31:39;;;;;;;9.73;7.32;;;;;;;;;;5033872;28;20045;-51
2021/12/15 01:34:04;;;;;;;13.35;6.93;;;;;;;;;;5036536;28;20037;-50
2021/12/15 01:36:30;;;;;;;6.75;5.85;;;;;;;;;;5036649;28;20061;-50
2021/12/15 01:38:56;;;;;;;10.35;8.15;;;;;;;;;;5034673;28;20040;-53
2021/12/15 01:41:23;;;;;;;9.70;5.90;;;;;;;;;;5034375;28;20459;-51
2021/12/15 01:49:38;;;;;;;6.38;5.57;;;;;;;;;;5034945;28;20029;-50
2021/12/15 01:52:12;;;;;;;6.95;5.53;;;;;;;;;;5037084;28;20547;-51
2021/12/15 01:54:40;;;;;;;8.35;7.10;;;;;;;;;;5034927;28;20041;-53
2021/12/15 01:57:08;;;;;;;15.70;5.75;;;;;;;;;;5022090;28;20182;-51
2021/12/15 01:59:34;;;;;;;13.45;7.60;;;;;;;;;;5038118;28;20363;-49
2021/12/15 02:02:01;;;;;;;8.65;6.65;;;;;;;;;;5039133;28;20024;-52
2021/12/15 02:04:26;;;;;;;9.48;7.13;;;;;;;;;;5034372;28;20049;-49
2021/12/15 02:06:52;;;;;;;7.95;5.90;;;;;;;;;;5031472;28;20771;-50
2021/12/15 02:11:59;;;;;;;9.15;6.65;;;;;;;;;;5032645;28;20471;-51
2021/12/15 02:14:24;;;;;;;5.15;4.55;;;;;;;;;;5035029;28;20097;-48
2021/12/15 02:16:50;;;;;;;7.85;5.38;;;;;;;;;;5031334;28;20055;-50
2021/12/15 02:19:16;;;;;;;7.80;6.22;;;;;;;;;;5035538;28;20021;-49
2021/12/15 02:21:42;;;;;;;7.18;6.20;;;;;;;;;;5039113;28;20110;-49
2021/12/15 02:24:07;;;;;;;10.85;6.90;;;;;;;;;;5037651;28;20471;-48
2021/12/15 02:26:37;;;;;;;8.40;6.80;;;;;;;;;;5036310;28;20044;-50
2021/12/15 02:29:06;;;;;;;6.07;5.47;;;;;;;;;;5036503;28;20037;-49
2021/12/15 02:39:19;;;;;;;8.20;6.35;;;;;;;;;;5036838;28;20136;-48
2021/12/15 02:41:46;;;;;;;7.65;6.38;;;;;;;;;;5036791;28;20104;-52
2021/12/15 02:44:18;;;;;;;6.03;5.47;;;;;;;;;;5041091;28;20028;-51
2021/12/15 02:46:44;;;;;;;9.20;6.10;;;;;;;;;;5037650;28;20040;-49
2021/12/15 02:49:12;;;;;;;10.70;6.68;;;;;;;;;;5035826;28;20040;-54
2021/12/15 02:51:39;;;;;;;7.32;5.65;;;;;;;;;;5037360;28;20031;-51
2021/12/15 02:54:07;;;;;;;7.65;6.53;;;;;;;;;;5036216;28;20071;-50
2021/12/15 02:56:34;;;;;;;9.13;6.93;;;;;;;;;;5040952;28;20040;-48
2021/12/15 02:59:03;;;;;;;6.88;5.60;;;;;;;;;;5036097;28;20083;-48
2021/12/15 03:04:31;;;;;;;9.05;7.57;;;;;;;;;;5041243;28;20609;-48
2021/12/15 03:07:39;;;;;;;14.20;6.80;;;;;;;;;;5038694;28;20481;-51
2021/12/15 03:15:30;;;;;;;7.18;5.80;;;;;;;;;;5038608;28;20107;-49
2021/12/15 03:18:03;;;;;;;7.82;5.68;;;;;;;;;;5035539;28;20100;-53
2021/12/15 03:20:32;;;;;;;7.63;5.72;;;;;;;;;;5037584;28;20037;-51
2021/12/15 03:22:57;;;;;;;6.28;5.35;;;;;;;;;;5035265;28;20043;-49
2021/12/15 03:25:25;;;;;;;7.25;6.07;;;;;;;;;;5037546;28;20116;-51
2021/12/15 03:36:07;;;;;;;6.55;5.93;;;;;;;;;;5034407;28;20029;-54
2021/12/15 03:38:34;;;;;;;8.35;6.07;;;;;;;;;;5035991;28;20068;-55
2021/12/15 03:40:59;;;;;;;9.07;6.18;;;;;;;;;;5035571;28;20370;-55
2021/12/15 03:43:25;;;;;;;8.23;5.75;;;;;;;;;;5034789;28;20021;-55
2021/12/15 03:45:54;;;;;;;7.18;5.95;;;;;;;;;;5036029;28;20631;-55
2021/12/15 03:48:24;;;;;;;6.50;5.90;;;;;;;;;;5036823;28;20471;-52
2021/12/15 03:50:51;;;;;;;23.42;6.00;;;;;;;;;;5035225;28;20056;-51
2021/12/15 03:53:18;;;;;;;8.07;5.85;;;;;;;;;;5036328;28;21491;-50
2021/12/15 03:55:45;;;;;;;9.25;5.65;;;;;;;;;;5035467;28;20029;-49
2021/12/15 03:58:13;;;;;;;8.55;5.93;;;;;;;;;;5036892;28;20033;-50
2021/12/15 04:01:03;;;;;;;7.88;5.72;;;;;;;;;;5034989;28;20789;-51
2021/12/15 04:03:38;;;;;;;9.80;7.38;;;;;;;;;;5035843;28;20163;-52
2021/12/15 04:06:05;;;;;;;5.97;5.30;;;;;;;;;;5037835;28;20056;-49
2021/12/15 04:08:34;;;;;;;6.65;6.03;;;;;;;;;;5035396;28;20032;-53
2021/12/15 04:11:00;;;;;;;11.18;7.20;;;;;;;;;;5033057;28;20033;-48
2021/12/15 04:13:25;;;;;;;5.95;5.25;;;;;;;;;;5040555;28;20352;-48
2021/12/15 04:15:57;;;;;;;6.47;5.55;;;;;;;;;;5034032;28;20037;-56
2021/12/15 04:18:24;;;;;;;6.50;5.30;;;;;;;;;;5039768;28;20519;-56
2021/12/15 04:20:51;;;;;;;8.10;5.57;;;;;;;;;;5038114;28;20083;-54
2021/12/15 04:23:19;;;;;;;6.32;5.45;;;;;;;;;;5036805;28;20033;-55
2021/12/15 04:25:48;;;;;;;7.45;6.53;;;;;;;;;;5033714;28;20090;-56
2021/12/15 04:28:18;;;;;;;9.65;5.47;;;;;;;;;;5032287;28;20109;-56
2021/12/15 04:30:49;;;;;;;5.72;5.13;;;;;;;;;;5035933;28;20032;-56
2021/12/15 04:33:50;;;;;;;6.47;5.50;;;;;;;;;;5037113;28;20041;-55
2021/12/15 04:36:16;;;;;;;4.45;4.00;;;;;;;;;;5027977;28;20057;-56
2021/12/15 04:38:44;;;;;;;5.65;4.90;;;;;;;;;;5036364;28;20087;-55
2021/12/15 04:41:13;;;;;;;8.48;5.63;;;;;;;;;;5038699;28;20056;-55
2021/12/15 04:43:40;;;;;;;7.65;5.78;;;;;;;;;;5036840;28;20056;-55
2021/12/15 04:46:08;;;;;;;6.70;5.30;;;;;;;;;;5031315;28;20455;-56
2021/12/15 04:48:36;;;;;;;6.38;5.63;;;;;;;;;;5033040;28;20041;-56
2021/12/15 04:51:04;;;;;;;8.57;6.40;;;;;;;;;;5036022;28;20033;-56
2021/12/15 04:53:29;;;;;;;9.38;6.63;;;;;;;;;;5031599;28;20031;-56
2021/12/15 04:55:55;;;;;;;6.55;5.30;;;;;;;;;;5035040;28;20030;-55
2021/12/15 04:58:20;;;;;;;8.05;6.32;;;;;;;;;;5036575;28;20060;-55
2021/12/15 05:00:52;;;;;;;8.80;6.70;;;;;;;;;;5033944;28;20553;-56
2021/12/15 05:03:18;;;;;;;7.40;5.88;;;;;;;;;;5039367;28;20053;-56
2021/12/15 05:05:43;;;;;;;7.55;5.65;;;;;;;;;;5034949;28;20056;-55
2021/12/15 05:08:10;;;;;;;5.60;5.00;;;;;;;;;;5031162;28;20037;-55
2021/12/15 05:10:36;;;;;;;7.15;5.80;;;;;;;;;;5036293;28;20030;-56
2021/12/15 05:13:03;;;;;;;10.98;7.25;;;;;;;;;;5036019;28;20033;-56
2021/12/15 05:15:29;;;;;;;6.53;5.80;;;;;;;;;;5019463;28;20038;-55
2021/12/15 05:17:55;;;;;;;6.53;5.93;;;;;;;;;;5033603;28;20032;-55
2021/12/15 05:20:22;;;;;;;6.25;5.65;;;;;;;;;;5038411;28;20450;-54
2021/12/15 05:22:48;;;;;;;7.35;6.07;;;;;;;;;;5037029;28;20037;-54
2021/12/15 05:25:13;;;;;;;6.05;4.85;;;;;;;;;;5036714;28;20029;-55
2021/12/15 05:27:40;;;;;;;7.60;6.45;;;;;;;;;;5034459;28;20171;-56
2021/12/15 05:30:07;;;;;;;6.35;5.68;;;;;;;;;;5032329;28;20053;-54
2021/12/15 05:32:33;;;;;;;6.88;6.22;;;;;;;;;;5033723;28;20029;-56
2021/12/15 05:34:59;;;;;;;6.53;5.25;;;;;;;;;;5037713;28;20045;-55
2021/12/15 05:37:26;;;;;;;5.70;5.10;;;;;;;;;;5036029;28;20029;-53
2021/12/15 05:39:53;;;;;;;8.40;6.90;;;;;;;;;;5032860;28;20060;-55
2021/12/15 05:42:21;;;;;;;10.73;5.72;;;;;;;;;;5035561;28;20044;-54
2021/12/15 05:44:48;;;;;;;9.00;6.78;;;;;;;;;;5034280;28;20128;-56
2021/12/15 05:47:13;;;;;;;7.18;6.43;;;;;;;;;;5035281;28;20576;-56
2021/12/15 05:49:39;;;;;;;5.57;4.75;;;;;;;;;;5038760;28;20033;-53
2021/12/15 05:52:05;;;;;;;5.57;5.07;;;;;;;;;;5039028;28;20030;-54
2021/12/15 05:54:31;;;;;;;7.90;5.60;;;;;;;;;;5035441;28;20124;-52
2021/12/15 05:56:57;;;;;;;6.97;5.75;;;;;;;;;;5038531;28;20045;-53
2021/12/15 05:59:22;;;;;;;6.13;5.40;;;;;;;;;;5040932;28;20029;-52
2021/12/15 06:01:48;;;;;;;10.40;6.30;;;;;;;;;;5041351;28;20033;-52
2021/12/15 06:04:14;;;;;;;5.57;5.00;;;;;;;;;;5040674;28;20108;-53
2021/12/15 06:06:39;;;;;;;9.70;6.30;;;;;;;;;;5038500;28;20025;-54
2021/12/15 06:09:06;;;;;;;7.93;5.03;;;;;;;;;;5038838;28;20029;-54
2021/12/15 06:11:32;;;;;;;7.55;5.88;;;;;;;;;;5037964;28;20041;-56
2021/12/15 06:13:58;;;;;;;7.15;5.95;;;;;;;;;;5041278;28;20140;-54
2021/12/15 06:16:23;;;;;;;11.13;6.38;;;;;;;;;;5037147;28;20025;-56
2021/12/15 06:18:51;;;;;;;7.90;6.28;;;;;;;;;;5038936;28;20043;-55
2021/12/15 06:21:18;;;;;;;7.65;6.38;;;;;;;;;;5037820;28;20021;-56
2021/12/15 06:23:44;;;;;;;8.20;5.85;;;;;;;;;;5038459;28;20091;-56
2021/12/15 06:26:10;;;;;;;7.75;6.40;;;;;;;;;;5038256;28;20063;-56
2021/12/15 06:28:37;;;;;;;11.32;7.88;;;;;;;;;;5037268;28;20079;-56
2021/12/15 06:31:08;;;;;;;5.40;4.90;;;;;;;;;;5032400;28;20029;-56
2021/12/15 06:33:35;;;;;;;18.75;5.97;;;;;;;;;;5036117;28;20037;-56
2021/12/15 06:36:02;;;;;;;7.18;5.70;;;;;;;;;;5039262;28;20116;-57
2021/12/15 06:38:34;;;;;;;15.68;8.15;;;;;;;;;;5037083;28;20117;-57
2021/12/15 06:41:00;;;;;;;7.47;6.68;;;;;;;;;;5038402;28;20028;-54
2021/12/15 06:43:26;;;;;;;11.35;7.80;;;;;;;;;;5037735;28;20116;-57
2021/12/15 06:46:04;;;;;;;29.00;13.77;;;;;;;;;;5037845;28;20195;-57
2021/12/15 06:59:32;;;;;;;11.85;5.80;;;;;;;;;;5036240;28;20533;-56
2021/12/15 07:01:57;;;;;;;8.98;6.45;;;;;;;;;;5034231;28;20041;-57
2021/12/15 07:04:24;;;;;;;8.27;7.25;;;;;;;;;;5034908;28;20099;-56
2021/12/15 07:06:51;;;;;;;8.15;6.43;;;;;;;;;;5038854;28;20467;-56
2021/12/15 07:09:17;;;;;;;9.65;6.95;;;;;;;;;;5033768;28;20374;-56
2021/12/15 07:11:42;;;;;;;8.93;7.05;;;;;;;;;;5038292;28;20111;-56
2021/12/15 07:14:08;;;;;;;12.27;7.45;;;;;;;;;;5038411;28;20451;-56
2021/12/15 07:16:39;;;;;;;7.30;5.55;;;;;;;;;;5035435;28;20041;-56
2021/12/15 07:19:09;;;;;;;6.53;5.55;;;;;;;;;;5035315;28;20053;-53
2021/12/15 07:21:39;;;;;;;10.65;6.90;;;;;;;;;;5036459;28;20458;-56
2021/12/15 07:24:06;;;;;;;8.95;6.68;;;;;;;;;;5036080;28;20551;-55
2021/12/15 07:26:32;;;;;;;10.25;7.55;;;;;;;;;;5038001;28;20378;-56
2021/12/15 07:28:58;;;;;;;9.57;6.78;;;;;;;;;;5037338;28;20044;-56
2021/12/15 07:31:23;;;;;;;10.52;7.18;;;;;;;;;;5035248;28;20029;-55
2021/12/15 07:33:49;;;;;;;8.20;6.57;;;;;;;;;;5041346;28;20521;-56
2021/12/15 07:36:16;;;;;;;8.63;6.97;;;;;;;;;;5020913;28;20022;-56
2021/12/15 07:38:41;;;;;;;8.20;7.20;;;;;;;;;;5034452;28;20037;-55
2021/12/15 07:41:27;;;;;;;9.13;7.15;;;;;;;;;;5020616;28;20394;-55
2021/12/15 07:43:55;;;;;;;10.13;7.35;;;;;;;;;;5037164;28;20033;-55
2021/12/15 07:46:20;;;;;;;7.43;6.57;;;;;;;;;;5034978;28;20462;-55
2021/12/15 07:48:45;;;;;;;7.85;6.75;;;;;;;;;;5036166;28;20033;-54
2021/12/15 07:51:13;;;;;;;8.18;5.93;;;;;;;;;;5034362;28;20036;-53
2021/12/15 07:53:40;;;;;;;7.22;6.45;;;;;;;;;;5034493;28;20042;-56
2021/12/15 07:56:06;;;;;;;7.80;7.03;;;;;;;;;;5035465;28;20113;-56
2021/12/15 07:58:31;;;;;;;7.88;6.43;;;;;;;;;;5037641;28;20022;-56
2021/12/15 08:00:59;;;;;;;7.90;6.88;;;;;;;;;;5033493;28;20037;-56
2021/12/15 08:03:26;;;;;;;7.60;6.32;;;;;;;;;;5036864;28;20029;-55
2021/12/15 08:05:52;;;;;;;7.60;5.75;;;;;;;;;;5035319;28;20033;-55
2021/12/15 08:08:18;;;;;;;9.82;7.03;;;;;;;;;;5036672;28;20391;-55
2021/12/15 08:10:44;;;;;;;13.60;7.97;;;;;;;;;;5038877;28;20022;-55
2021/12/15 08:13:12;;;;;;;7.38;5.88;;;;;;;;;;5036656;28;20033;-53
2021/12/15 08:15:38;;;;;;;12.23;7.63;;;;;;;;;;5034401;28;20055;-57
2021/12/15 08:18:05;;;;;;;8.05;6.90;;;;;;;;;;5032500;28;20022;-56
2021/12/15 08:20:32;;;;;;;7.40;6.70;;;;;;;;;;5035888;28;20036;-57
2021/12/15 08:22:57;;;;;;;11.93;7.50;;;;;;;;;;5034277;28;20091;-57
2021/12/15 08:25:23;;;;;;;7.85;7.05;;;;;;;;;;5034247;28;20498;-56
2021/12/15 08:27:50;;;;;;;8.23;6.47;;;;;;;;;;5033718;28;20029;-56
2021/12/15 08:30:20;;;;;;;10.65;6.90;;;;;;;;;;5032209;28;20036;-56
2021/12/15 08:32:49;;;;;;;7.97;6.32;;;;;;;;;;5039089;28;20060;-56
2021/12/15 08:35:17;;;;;;;10.32;7.05;;;;;;;;;;5034772;28;20040;-57
2021/12/15 08:37:43;;;;;;;10.60;7.10;;;;;;;;;;5033460;28;20029;-56
2021/12/15 08:40:09;;;;;;;15.50;7.13;;;;;;;;;;5035366;28;20033;-56
2021/12/15 08:42:34;;;;;;;16.70;6.70;;;;;;;;;;5033656;28;20029;-57
2021/12/15 08:45:00;;;;;;;8.88;6.35;;;;;;;;;;5032784;28;20519;-56
2021/12/15 08:47:26;;;;;;;10.15;6.80;;;;;;;;;;5035928;28;20037;-56
2021/12/15 08:49:53;;;;;;;10.02;6.20;;;;;;;;;;5036673;28;20048;-57
2021/12/15 08:52:18;;;;;;;9.27;6.93;;;;;;;;;;5037880;28;20042;-55
2021/12/15 08:54:44;;;;;;;7.43;6.07;;;;;;;;;;5035183;28;20044;-56
2021/12/15 08:57:10;;;;;;;7.45;6.47;;;;;;;;;;5029431;28;20137;-57
2021/12/15 08:59:36;;;;;;;11.20;8.57;;;;;;;;;;5028243;28;20041;-57
2021/12/15 09:02:02;;;;;;;9.80;8.02;;;;;;;;;;5032804;28;20056;-55
2021/12/15 09:04:28;;;;;;;11.88;8.68;;;;;;;;;;5034231;28;20033;-59
2021/12/15 09:06:53;;;;;;;10.10;7.65;;;;;;;;;;5036986;28;20363;-57
2021/12/15 09:09:20;;;;;;;7.45;6.60;;;;;;;;;;5033646;28;20169;-58
2021/12/15 09:11:47;;;;;;;12.43;8.10;;;;;;;;;;5034993;28;20029;-57
2021/12/15 09:14:13;;;;;;;9.95;7.63;;;;;;;;;;5034658;28;20064;-56
2021/12/15 09:16:42;;;;;;;11.05;7.45;;;;;;;;;;5034962;28;20068;-56
2021/12/15 09:19:07;;;;;;;12.25;8.05;;;;;;;;;;5035235;28;20487;-57
2021/12/15 09:21:35;;;;;;;10.00;7.07;;;;;;;;;;5033126;28;20053;-53
2021/12/15 09:24:04;;;;;;;12.82;8.20;;;;;;;;;;5034612;28;20099;-56
2021/12/15 09:26:30;;;;;;;12.10;7.80;;;;;;;;;;5035153;28;20059;-55
2021/12/15 09:28:56;;;;;;;12.90;8.52;;;;;;;;;;5033108;28;20029;-57
2021/12/15 09:31:22;;;;;;;16.25;7.88;;;;;;;;;;5033867;28;20044;-57
2021/12/15 09:33:50;;;;;;;9.35;8.02;;;;;;;;;;5035540;28;20434;-58
2021/12/15 09:36:17;;;;;;;10.60;7.53;;;;;;;;;;5037895;28;20502;-56
2021/12/15 09:38:45;;;;;;;10.48;9.38;;;;;;;;;;5034577;28;20025;-57
2021/12/15 09:41:14;;;;;;;8.57;7.75;;;;;;;;;;5036451;28;20395;-57
2021/12/15 09:43:41;;;;;;;8.98;6.72;;;;;;;;;;5036227;28;20117;-54
2021/12/15 09:46:13;;;;;;;7.63;6.88;;;;;;;;;;5038673;28;20493;-56
2021/12/15 09:57:16;;;;;;;14.73;8.13;;;;;;;;;;5040499;28;20176;-55
2021/12/15 10:05:12;;;;;;;10.52;6.57;;;;;;;;;;5040516;28;20052;-56
2021/12/15 10:19:09;;;;;;;10.25;7.55;;;;;;;;;;5038352;28;20049;-54
2021/12/15 10:21:34;;;;;;;7.18;6.45;;;;;;;;;;5038779;28;20485;-55
2021/12/15 10:24:01;;;;;;;7.28;5.47;;;;;;;;;;5036906;28;20116;-56
2021/12/15 10:26:27;;;;;;;7.85;6.10;;;;;;;;;;5038848;28;20060;-57
2021/12/15 10:28:53;;;;;;;10.43;7.40;;;;;;;;;;5037430;28;20387;-55
2021/12/15 10:31:27;;;;;;;9.52;6.55;;;;;;;;;;5034794;28;20119;-54
2021/12/15 10:33:59;;;;;;;8.45;7.55;;;;;;;;;;5034830;28;20180;-56
2021/12/15 10:36:32;;;;;;;7.35;5.38;;;;;;;;;;5040168;28;20033;-56
2021/12/15 10:39:07;;;;;;;6.95;5.40;;;;;;;;;;5024780;28;20115;-57
2021/12/15 10:41:40;;;;;;;7.15;5.75;;;;;;;;;;5034758;28;20489;-56
2021/12/15 10:44:15;;;;;;;8.27;5.72;;;;;;;;;;5039859;28;20043;-55
2021/12/15 10:46:49;;;;;;;7.82;6.47;;;;;;;;;;5036738;28;20033;-55
2021/12/15 10:49:24;;;;;;;6.05;5.45;;;;;;;;;;5039313;28;20400;-55
2021/12/15 10:51:49;;;;;;;10.27;6.85;;;;;;;;;;5034782;28;20403;-55
2021/12/15 10:54:28;;;;;;;14.32;6.43;;;;;;;;;;5037012;28;20043;-55
2021/12/15 10:56:56;;;;;;;6.55;5.93;;;;;;;;;;5037838;28;20475;-55
2021/12/15 10:59:24;;;;;;;10.43;5.28;;;;;;;;;;5037072;28;20175;-54
2021/12/15 11:02:44;;;;;;;5.82;5.22;;;;;;;;;;5036182;28;20497;-54
2021/12/15 11:05:36;;;;;;;5.32;4.75;;;;;;;;;;4986462;28;20052;-50
2021/12/15 11:08:01;;;;;;;8.45;6.10;;;;;;;;;;5004470;28;20045;-51
2021/12/15 11:10:34;;;;;;;6.55;5.18;;;;;;;;;;5039748;28;20036;-51
2021/12/15 11:13:03;;;;;;;7.60;5.72;;;;;;;;;;5037458;28;20367;-49
2021/12/15 11:15:40;;;;;;;9.85;5.85;;;;;;;;;;5034597;28;20047;-53
2021/12/15 11:18:25;;;;;;;4.85;4.35;;;;;;;;;;5037892;28;20100;-50
2021/12/15 11:20:52;;;;;;;7.28;4.63;;;;;;;;;;5038500;28;20044;-54
2021/12/15 11:23:26;;;;;;;8.02;4.65;;;;;;;;;;5035581;28;20034;-52
2021/12/15 11:25:56;;;;;;;5.22;4.72;;;;;;;;;;5034975;28;20029;-53
2021/12/15 11:28:28;;;;;;;7.38;5.57;;;;;;;;;;5038290;28;20104;-55
2021/12/15 11:31:08;;;;;;;7.43;5.65;;;;;;;;;;5037639;28;20044;-53
2021/12/15 11:33:38;;;;;;;5.20;4.70;;;;;;;;;;5038896;28;20039;-52
2021/12/15 11:36:04;;;;;;;6.73;6.03;;;;;;;;;;5037739;28;20035;-53
2021/12/15 11:38:36;;;;;;;7.43;5.47;;;;;;;;;;5037592;28;20105;-51
2021/12/15 11:41:09;;;;;;;6.63;5.57;;;;;;;;;;5034594;28;20031;-50
2021/12/15 11:43:37;;;;;;;9.30;5.72;;;;;;;;;;5037438;28;20454;-51
2021/12/15 11:46:13;;;;;;;5.18;4.68;;;;;;;;;;5037139;28;20037;-50
2021/12/15 11:48:40;;;;;;;5.22;4.72;;;;;;;;;;5039309;28;20065;-52
2021/12/15 11:51:07;;;;;;;6.45;5.05;;;;;;;;;;5039172;28;20029;-50
2021/12/15 11:53:41;;;;;;;6.68;5.40;;;;;;;;;;5032728;28;20137;-50
2021/12/15 11:56:23;;;;;;;7.47;4.45;;;;;;;;;;5032794;28;20029;-55
2021/12/15 11:58:54;;;;;;;6.97;6.28;;;;;;;;;;5031077;28;20090;-49
2021/12/15 12:01:43;;;;;;;4.97;4.38;;;;;;;;;;5035322;28;20100;-51
2021/12/15 12:04:18;;;;;;;5.63;4.43;;;;;;;;;;5030363;28;20025;-50
2021/12/15 12:06:47;;;;;;;4.47;4.07;;;;;;;;;;5036045;28;20063;-51
2021/12/15 12:09:13;;;;;;;6.78;5.85;;;;;;;;;;5035066;28;20398;-51
2021/12/15 12:11:41;;;;;;;5.60;4.95;;;;;;;;;;5031944;28;20029;-51
2021/12/15 12:14:17;;;;;;;5.43;4.90;;;;;;;;;;5033554;28;20370;-54
2021/12/15 12:16:45;;;;;;;7.20;6.32;;;;;;;;;;5031202;28;20036;-53
2021/12/15 12:19:13;;;;;;;6.25;5.47;;;;;;;;;;5034806;28;20112;-54
2021/12/15 12:21:39;;;;;;;5.35;4.85;;;;;;;;;;5034276;28;20044;-51
2021/12/15 12:24:05;;;;;;;5.28;4.72;;;;;;;;;;5036089;28;20863;-50
2021/12/15 12:26:32;;;;;;;7.05;5.68;;;;;;;;;;5032237;28;20124;-52
2021/12/15 12:28:58;;;;;;;4.55;3.92;;;;;;;;;;5033393;28;20420;-51
2021/12/15 12:31:24;;;;;;;5.13;4.63;;;;;;;;;;5031528;28;20080;-53
2021/12/15 12:33:50;;;;;;;6.00;5.07;;;;;;;;;;5030681;28;20167;-53
2021/12/15 12:36:29;;;;;;;4.93;4.43;;;;;;;;;;5031256;28;20017;-54
2021/12/15 12:39:05;;;;;;;5.05;4.40;;;;;;;;;;5031080;28;20036;-53
2021/12/15 12:41:38;;;;;;;6.82;5.38;;;;;;;;;;5033181;28;20037;-51
2021/12/15 12:44:05;;;;;;;5.72;5.07;;;;;;;;;;5031101;28;20099;-53
2021/12/15 12:46:45;;;;;;;5.20;4.60;;;;;;;;;;5033970;28;20041;-53
2021/12/15 13:00:30;;;;;;;6.00;4.43;;;;;;;;;;5032610;28;20037;-50
2021/12/15 13:03:34;;;;;;;5.63;5.13;;;;;;;;;;5035919;28;20056;-53
2021/12/15 13:06:10;;;;;;;4.85;4.30;;;;;;;;;;5031417;28;20048;-49
2021/12/15 13:08:59;;;;;;;4.50;3.90;;;;;;;;;;5030963;28;20036;-55
2021/12/15 13:11:34;;;;;;;5.43;4.80;;;;;;;;;;5021066;28;20045;-49
2021/12/15 13:14:10;;;;;;;6.38;5.78;;;;;;;;;;5033470;28;20378;-51
2021/12/15 13:16:43;;;;;;;6.00;5.40;;;;;;;;;;5032505;28;20033;-48
2021/12/15 13:19:18;;;;;;;7.40;4.38;;;;;;;;;;5025772;28;20403;-49
2021/12/15 13:21:49;;;;;;;5.20;4.70;;;;;;;;;;5027618;28;20056;-49
2021/12/15 13:28:41;;;;;;;5.88;5.13;;;;;;;;;;5031192;28;20044;-52
2021/12/15 13:30:04;;;;;;;7.93;6.22;;;;;;;;;;5030248;28;20029;-53
2021/12/15 13:32:32;;;;;;;7.50;5.07;;;;;;;;;;5031011;28;20037;-53
2021/12/15 13:34:57;;;;;;;5.63;4.68;;;;;;;;;;5033529;28;20429;-53
2021/12/15 13:37:59;;;;;;;5.18;4.68;;;;;;;;;;5034327;28;20142;-53
2021/12/15 13:40:50;;;;;;;7.65;5.68;;;;;;;;;;5034396;28;20041;-50
2021/12/15 13:43:37;;;;;;;5.88;5.20;;;;;;;;;;5033866;28;20358;-53
2021/12/15 13:46:05;;;;;;;5.07;4.57;;;;;;;;;;5026873;28;20090;-51
2021/12/15 13:48:54;;;;;;;5.28;4.80;;;;;;;;;;5027224;28;20068;-51
2021/12/15 13:51:51;;;;;;;7.93;5.50;;;;;;;;;;5030876;28;20022;-53
2021/12/15 13:54:40;;;;;;;7.05;4.85;;;;;;;;;;5030581;28;20025;-53
2021/12/15 13:57:11;;;;;;;4.80;4.35;;;;;;;;;;5025003;28;20037;-51
2021/12/15 13:59:42;;;;;;;7.13;6.10;;;;;;;;;;5032496;28;20034;-52
2021/12/15 14:02:36;;;;;;;6.93;6.15;;;;;;;;;;5030514;28;20029;-53
2021/12/15 14:05:14;;;;;;;6.32;5.65;;;;;;;;;;5029890;28;20049;-52
2021/12/15 14:07:44;;;;;;;7.43;6.57;;;;;;;;;;5029148;28;20568;-50
2021/12/15 14:10:10;;;;;;;7.45;4.85;;;;;;;;;;5031790;28;20024;-49
2021/12/15 14:12:44;;;;;;;7.25;5.38;;;;;;;;;;5025219;28;20147;-52
2021/12/15 14:15:30;;;;;;;5.47;4.97;;;;;;;;;;5016431;28;20050;-52
2021/12/15 14:18:30;;;;;;;5.60;4.80;;;;;;;;;;5033854;28;20036;-52
2021/12/15 14:20:56;;;;;;;5.67;4.93;;;;;;;;;;5036441;28;20180;-51
2021/12/15 14:23:28;;;;;;;8.45;6.20;;;;;;;;;;5038141;28;20477;-50
2021/12/15 14:25:55;;;;;;;6.13;5.28;;;;;;;;;;5033389;28;20040;-49
2021/12/15 14:28:24;;;;;;;6.65;4.25;;;;;;;;;;5033351;28;20508;-50
2021/12/15 14:31:14;;;;;;;5.72;4.97;;;;;;;;;;5033719;28;20552;-49
2021/12/15 14:33:49;;;;;;;6.22;5.55;;;;;;;;;;5036409;28;20056;-50
2021/12/15 14:36:18;;;;;;;7.25;5.47;;;;;;;;;;5034370;28;20538;-50
2021/12/15 14:38:43;;;;;;;6.72;4.97;;;;;;;;;;5034776;28;20037;-50
2021/12/15 14:41:21;;;;;;;7.15;5.82;;;;;;;;;;5034988;28;20036;-50
2021/12/15 14:43:49;;;;;;;5.32;4.82;;;;;;;;;;5034427;28;20179;-51
2021/12/15 14:46:17;;;;;;;5.57;4.65;;;;;;;;;;5029875;28;20066;-49
2021/12/15 14:48:43;;;;;;;7.70;5.20;;;;;;;;;;5034095;28;20053;-52
2021/12/15 14:51:09;;;;;;;6.05;5.07;;;;;;;;;;5032013;28;20071;-54
2021/12/15 14:53:43;;;;;;;5.60;4.53;;;;;;;;;;5036426;28;20029;-53
2021/12/15 14:56:08;;;;;;;4.50;4.10;;;;;;;;;;5033217;28;20091;-51
2021/12/15 14:58:34;;;;;;;5.28;4.63;;;;;;;;;;5031824;28;20033;-54
2021/12/15 15:01:00;;;;;;;5.35;4.32;;;;;;;;;;5035856;28;20033;-51
2021/12/15 15:03:25;;;;;;;6.88;5.05;;;;;;;;;;5033738;28;20037;-51
2021/12/15 15:05:51;;;;;;;6.20;4.82;;;;;;;;;;5033710;28;20069;-53
2021/12/15 15:08:22;;;;;;;6.90;5.88;;;;;;;;;;5031891;28;20459;-53
2021/12/15 15:10:48;;;;;;;;;;;;;;;;;;5032026;28;20036;-54
2021/12/15 15:13:19;;;;;;;6.82;4.30;;;;;;;;;;5036142;28;19978;-55
2021/12/15 15:15:47;;;;;;;5.60;4.72;;;;;;;;;;5031321;28;20033;-53
2021/12/15 15:18:27;;;;;;;5.70;5.10;;;;;;;;;;5033254;28;20463;-54
2021/12/15 15:21:05;;;;;;;6.03;4.43;;;;;;;;;;5038667;28;20036;-54
2021/12/15 15:23:36;;;;;;;6.10;5.50;;;;;;;;;;5038250;28;20463;-54
2021/12/15 15:26:03;;;;;;;5.13;4.47;;;;;;;;;;5040511;28;20121;-54
2021/12/15 15:28:32;;;;;;;6.32;5.18;;;;;;;;;;5038063;28;20030;-53
2021/12/15 15:31:02;;;;;;;6.50;5.55;;;;;;;;;;5022794;28;20365;-53
2021/12/15 15:33:31;;;;;;;8.43;5.20;;;;;;;;;;5038619;28;20063;-54
2021/12/15 15:36:02;;;;;;;5.22;3.88;;;;;;;;;;5037082;28;20025;-54
2021/12/15 15:38:34;;;;;;;6.43;5.15;;;;;;;;;;5034024;28;20060;-54
2021/12/15 15:41:03;;;;;;;6.78;4.97;;;;;;;;;;5034547;28;20021;-54
2021/12/15 15:43:37;;;;;;;6.43;5.35;;;;;;;;;;5036958;28;20423;-54
2021/12/15 15:46:05;;;;;;;7.43;4.97;;;;;;;;;;5034498;28;20384;-54
2021/12/15 15:48:32;;;;;;;5.53;4.93;;;;;;;;;;5035493;28;20029;-55
2021/12/15 15:51:06;;;;;;;5.35;4.85;;;;;;;;;;5037500;28;20033;-53
2021/12/15 15:53:33;;;;;;;7.28;5.38;;;;;;;;;;5037983;28;20033;-55
2021/12/15 15:56:13;;;;;;;8.07;5.15;;;;;;;;;;5035488;28;20041;-54
2021/12/15 15:58:40;;;;;;;5.78;4.88;;;;;;;;;;5035964;28;20029;-54
2021/12/15 16:01:08;;;;;;;5.50;4.95;;;;;;;;;;5035596;28;20219;-54
2021/12/15 16:03:34;;;;;;;4.63;4.22;;;;;;;;;;5036304;28;20044;-54
2021/12/15 16:06:04;;;;;;;5.43;4.93;;;;;;;;;;5036388;28;20031;-54
2021/12/15 16:08:32;;;;;;;6.93;5.22;;;;;;;;;;5036662;28;20052;-55
2021/12/15 16:10:59;;;;;;;5.82;5.07;;;;;;;;;;5037876;28;20041;-54
2021/12/15 16:13:31;;;;;;;6.15;5.32;;;;;;;;;;5037139;28;20034;-55
2021/12/15 16:16:07;;;;;;;6.35;4.80;;;;;;;;;;5037008;28;20108;-52
2021/12/15 16:18:40;;;;;;;5.80;4.57;;;;;;;;;;5035474;28;20036;-54
2021/12/15 16:23:32;;;;;;;5.72;4.90;;;;;;;;;;5035011;28;20048;-53
2021/12/15 16:26:02;;;;;;;6.30;4.50;;;;;;;;;;5032897;28;20174;-52
2021/12/15 16:28:31;;;;;;;6.05;5.15;;;;;;;;;;5036838;28;20043;-53